CST,Max TemperatureF,Mean TemperatureF,Min TemperatureF,Max Dew PointF,MeanDew PointF,Min DewpointF,Max Humidity, Mean Humidity, Min Humidity, Max Sea Level PressureIn, Mean Sea Level PressureIn, Min Sea Level PressureIn, Max VisibilityMiles, Mean VisibilityMiles, Min VisibilityMiles, Max Wind SpeedMPH, Mean Wind SpeedMPH, Max Gust SpeedMPH,PrecipitationIn, CloudCover, Events, WindDirDegrees
2013-11-1,42,38,34,36,33,28,92,77,62,29.87,29.57,29.37,10,10,7,15,7,18,T,8,Rain,326
2013-11-2,46,36,25,30,26,22,92,69,45,30.07,30.00,29.86,10,10,10,9,2,12,0.00,6,,323
2013-11-3,46,36,25,32,28,22,88,67,45,30.09,30.01,29.89,10,10,10,20,11,30,0.00,4,,139
2013-11-4,47,39,30,38,32,23,89,74,58,29.99,29.81,29.70,10,10,4,17,10,26,0.15,7,Rain,206
2013-11-5,34,30,25,23,20,18,84,70,56,30.17,30.12,30.02,10,10,10,3,8,5,T,2,,250
2013-11-6,30,27,24,23,21,19,88,79,69,30.14,30.08,30.01,10,10,10,12,6,16,T,7,,286
2013-11-7,34,26,18,25,23,15,85,73,61,30.18,30.15,30.08,10,10,10,12,6,16,T,7,,272
2013-11-8,37,27,17,31,25,14,92,78,64,30.15,29.89,29.62,10,6,0,16,7,21,0.32,7,Fog-Snow,123
2013-11-9,35,34,33,32,31,30,96,93,89,30.16,29.84,29.59,10,6,1,16,7,20,0.09,8,Rain-Snow,303
2013-11-10,34,26,17,30,24,8,92,76,60,30.28,30.13,30.02,10,7,0,21,12,29,0.04,8,Fog-Snow,279
2013-11-11,20,14,8,11,6,2,80,65,49,30.71,30.48,30.24,10,9,2,20,11,24,T,5,Snow,311
2013-11-12,30,20,10,15,9,3,76,63,50,30.72,30.53,30.23,10,10,10,15,8,21,T,2,,231
2013-11-13,44,32,20,32,25,11,82,71,59,30.19,29.84,29.73,10,10,10,17,8,24,0.00,0,,239
2013-11-14,37,31,24,32,29,23,92,81,70,29.83,29.75,29.68,10,8,2,7,2,9,0.05,7,Snow,256
2013-11-15,45,35,25,36,30,23,96,77,58,29.77,29.68,29.52,10,9,1,14,5,18,0.03,3,,225
2013-11-16,46,42,37,39,36,33,100,85,70,29.49,29.39,29.31,10,8,1,13,4,20,T,6,Rain,119
2013-11-17,40,33,25,38,30,21,96,89,81,29.75,29.42,29.25,10,5,1,17,10,23,0.27,8,Rain-Snow,345
2013-11-18,25,23,21,21,17,15,88,78,68,30.26,30.07,29.70,10,10,3,18,9,24,T,8,Snow,313
2013-11-19,40,30,20,27,20,16,91,72,52,30.27,30.02,29.71,10,10,10,13,10,28,0.00,4,,152
2013-11-20,44,38,31,32,29,27,82,70,57,30.05,29.89,29.71,10,10,9,14,8,26,0.00,5,,360
2013-11-21,31,21,11,27,14,8,85,76,67,30.58,30.33,30.00,10,7,1,21,11,25,0.09,7,Snow,326
2013-11-22,16,10,4,9,4,0,92,75,58,30.71,30.50,30.35,10,6,0,20,9,26,0.01,7,Snow,295
2013-11-23,11,2,-7,0,-4,-10,82,70,57,30.86,30.77,30.69,10,10,10,18,7,23,T,5,,316
2013-11-24,35,15,-6,24,8,-7,86,70,54,30.65,30.07,29.61,10,10,10,20,8,25,T,7,,189
2013-11-25,34,26,17,29,21,9,85,74,62,30.00,29.83,29.60,10,8,2,25,14,36,0.02,8,Snow,288
2013-11-26,17,11,4,10,3,-3,79,69,58,30.45,30.23,29.94,10,9,2,23,11,32,T,6,Snow,325
2013-11-27,16,9,2,12,8,-1,88,78,67,30.44,30.23,30.07,10,6,0,12,4,14,0.08,7,Fog-Snow,127
2013-11-28,20,14,7,13,10,5,92,80,67,30.53,30.30,30.06,10,7,2,7,3,9,0.03,7,Snow,356
2013-11-29,23,10,-4,16,7,-8,91,79,67,30.55,30.37,30.09,10,10,10,15,7,21,0.00,6,,139
2013-11-30,27,25,23,20,19,17,81,78,74,30.22,30.12,29.98,10,10,7,8,3,12,0.00,8,,348